sensor_id;sensor_type;location;lat;lon;timestamp;pressure;altitude;pressure_sealevel;temperature;humidity
43217;BME280;60511;42.686;23.300;2023-03-15T00:01:25;93735.31;;;23.02;25.78
43217;BME280;60511;42.686;23.300;2023-03-15T00:03:26;93626.31;;;22.32;25.84
43217;BME280;60511;42.686;23.300;2023-03-15T00:05:26;93729.91;;;23.02;25.44
43217;BME280;60511;42.686;23.300;2023-03-15T00:07:27;93745.34;;;23.01;25.73
43217;BME280;60511;42.686;23.300;2023-03-15T00:09:27;93723.38;;;23.03;25.59
43217;BME280;60511;42.686;23.300;2023-03-15T00:11:29;93648.47;;;22.52;25.66
43217;BME280;60511;42.686;23.300;2023-03-15T00:13:30;93668.69;;;22.69;25.85
43217;BME280;60511;42.686;23.300;2023-03-15T00:15:31;93701.25;;;22.90;25.78
43217;BME280;60511;42.686;23.300;2023-03-15T00:17:31;93709.31;;;22.86;26.02
43217;BME280;60511;42.686;23.300;2023-03-15T00:19:33;93612.69;;;22.21;25.86
43217;BME280;60511;42.686;23.300;2023-03-15T00:21:34;93661.63;;;22.57;25.67
43217;BME280;60511;42.686;23.300;2023-03-15T00:23:34;93716.28;;;22.91;25.84
43217;BME280;60511;42.686;23.300;2023-03-15T00:25:35;93591.00;;;22.10;25.91
43217;BME280;60511;42.686;23.300;2023-03-15T00:27:36;93652.66;;;22.49;25.81
43217;BME280;60511;42.686;23.300;2023-03-15T00:29:37;93717.09;;;22.95;25.84
43217;BME280;60511;42.686;23.300;2023-03-15T00:31:37;93645.78;;;22.52;25.76
43217;BME280;60511;42.686;23.300;2023-03-15T00:33:37;93651.22;;;22.59;25.86
43217;BME280;60511;42.686;23.300;2023-03-15T00:35:41;93719.03;;;22.95;25.66
43217;BME280;60511;42.686;23.300;2023-03-15T00:37:41;93676.00;;;22.68;25.85
43217;BME280;60511;42.686;23.300;2023-03-15T00:39:42;93718.28;;;22.98;25.66
43217;BME280;60511;42.686;23.300;2023-03-15T00:41:44;93698.13;;;22.88;25.65
43217;BME280;60511;42.686;23.300;2023-03-15T00:43:46;93695.78;;;22.83;26.00
43217;BME280;60511;42.686;23.300;2023-03-15T00:45:46;93718.63;;;22.93;26.01
43217;BME280;60511;42.686;23.300;2023-03-15T00:47:51;93681.44;;;22.75;25.61
43217;BME280;60511;42.686;23.300;2023-03-15T00:49:52;93715.50;;;22.87;25.69
43217;BME280;60511;42.686;23.300;2023-03-15T00:51:55;93686.44;;;22.73;26.07
43217;BME280;60511;42.686;23.300;2023-03-15T00:53:56;93623.78;;;22.46;25.62
43217;BME280;60511;42.686;23.300;2023-03-15T00:55:56;93660.22;;;22.70;25.62
43217;BME280;60511;42.686;23.300;2023-03-15T00:57:56;93593.44;;;22.22;25.77
43217;BME280;60511;42.686;23.300;2023-03-15T00:59:57;93683.56;;;22.93;26.08
43217;BME280;60511;42.686;23.300;2023-03-15T01:01:57;93702.44;;;22.93;25.78
43217;BME280;60511;42.686;23.300;2023-03-15T01:03:58;93646.25;;;22.61;25.72
43217;BME280;60511;42.686;23.300;2023-03-15T01:05:58;93601.03;;;22.47;25.82
43217;BME280;60511;42.686;23.300;2023-03-15T01:07:58;93526.94;;;21.93;26.25
43217;BME280;60511;42.686;23.300;2023-03-15T01:10:00;93685.09;;;22.94;26.20
43217;BME280;60511;42.686;23.300;2023-03-15T01:12:01;93683.56;;;22.93;25.71
43217;BME280;60511;42.686;23.300;2023-03-15T01:14:01;93590.13;;;22.33;25.88
43217;BME280;60511;42.686;23.300;2023-03-15T01:16:10;93678.94;;;22.93;25.91
43217;BME280;60511;42.686;23.300;2023-03-15T01:18:10;93650.94;;;22.67;25.98
43217;BME280;60511;42.686;23.300;2023-03-15T01:20:12;93628.19;;;22.65;25.66
43217;BME280;60511;42.686;23.300;2023-03-15T01:22:13;93589.03;;;22.41;25.43
43217;BME280;60511;42.686;23.300;2023-03-15T01:24:14;93619.63;;;22.56;25.67
43217;BME280;60511;42.686;23.300;2023-03-15T01:26:16;93644.50;;;22.79;26.06
43217;BME280;60511;42.686;23.300;2023-03-15T01:28:16;93656.97;;;22.95;25.72
43217;BME280;60511;42.686;23.300;2023-03-15T01:30:17;93621.66;;;22.70;25.92
43217;BME280;60511;42.686;23.300;2023-03-15T01:32:17;93629.06;;;22.76;25.81
43217;BME280;60511;42.686;23.300;2023-03-15T01:34:17;93654.50;;;22.79;26.19
43217;BME280;60511;42.686;23.300;2023-03-15T01:36:45;93650.78;;;22.91;26.25
43217;BME280;60511;42.686;23.300;2023-03-15T01:38:48;93645.78;;;22.93;25.56
43217;BME280;60511;42.686;23.300;2023-03-15T01:40:50;93645.78;;;22.93;25.76
43217;BME280;60511;42.686;23.300;2023-03-15T01:42:52;93641.88;;;22.90;25.89
43217;BME280;60511;42.686;23.300;2023-03-15T01:44:57;93644.97;;;22.89;25.64
43217;BME280;60511;42.686;23.300;2023-03-15T01:47:01;93584.84;;;22.43;25.60
43217;BME280;60511;42.686;23.300;2023-03-15T01:51:15;93564.78;;;22.41;25.74
43217;BME280;60511;42.686;23.300;2023-03-15T01:53:19;93645.38;;;22.94;25.77
43217;BME280;60511;42.686;23.300;2023-03-15T01:55:20;93537.69;;;22.26;26.24
43217;BME280;60511;42.686;23.300;2023-03-15T01:57:31;93609.75;;;22.71;25.60
43217;BME280;60511;42.686;23.300;2023-03-15T01:59:38;93596.97;;;22.67;25.83
43217;BME280;60511;42.686;23.300;2023-03-15T02:01:41;93565.22;;;22.46;25.68
43217;BME280;60511;42.686;23.300;2023-03-15T02:03:46;93550.13;;;22.38;25.72
43217;BME280;60511;42.686;23.300;2023-03-15T02:05:54;93586.59;;;22.70;25.58
43217;BME280;60511;42.686;23.300;2023-03-15T02:07:56;93545.97;;;22.48;25.58
43217;BME280;60511;42.686;23.300;2023-03-15T02:10:09;93599.50;;;22.91;25.56
43217;BME280;60511;42.686;23.300;2023-03-15T02:12:10;93585.91;;;22.80;25.79
43217;BME280;60511;42.686;23.300;2023-03-15T02:14:12;93563.44;;;22.65;25.78
43217;BME280;60511;42.686;23.300;2023-03-15T02:16:14;93600.63;;;22.90;25.51
43217;BME280;60511;42.686;23.300;2023-03-15T02:18:15;93606.41;;;22.88;25.76
43217;BME280;60511;42.686;23.300;2023-03-15T02:20:41;93553.44;;;22.65;25.61
43217;BME280;60511;42.686;23.300;2023-03-15T02:22:59;93570.53;;;22.80;25.71
43217;BME280;60511;42.686;23.300;2023-03-15T02:27:39;93551.81;;;22.57;25.27
43217;BME280;60511;42.686;23.300;2023-03-15T02:29:40;93597.19;;;22.89;25.77
43217;BME280;60511;42.686;23.300;2023-03-15T02:31:41;93561.16;;;22.67;25.56
43217;BME280;60511;42.686;23.300;2023-03-15T02:33:51;93578.94;;;22.75;25.75
43217;BME280;60511;42.686;23.300;2023-03-15T02:35:52;93455.00;;;21.97;25.68
43217;BME280;60511;42.686;23.300;2023-03-15T02:37:53;93593.72;;;22.89;25.59
43217;BME280;60511;42.686;23.300;2023-03-15T02:39:53;93470.91;;;22.09;25.61
43217;BME280;60511;42.686;23.300;2023-03-15T02:41:56;93592.53;;;22.90;25.54
43217;BME280;60511;42.686;23.300;2023-03-15T02:44:08;93489.44;;;22.18;25.91
43217;BME280;60511;42.686;23.300;2023-03-15T02:46:11;93572.00;;;22.74;25.72
43217;BME280;60511;42.686;23.300;2023-03-15T02:48:13;93518.94;;;22.41;25.65
43217;BME280;60511;42.686;23.300;2023-03-15T02:50:14;93567.75;;;22.73;26.00
43217;BME280;60511;42.686;23.300;2023-03-15T02:52:15;93583.66;;;22.85;25.69
43217;BME280;60511;42.686;23.300;2023-03-15T02:54:15;93525.56;;;22.51;25.58
43217;BME280;60511;42.686;23.300;2023-03-15T02:56:16;93583.66;;;22.85;25.37
43217;BME280;60511;42.686;23.300;2023-03-15T02:58:16;93534.06;;;22.53;25.59
43217;BME280;60511;42.686;23.300;2023-03-15T03:00:17;93575.56;;;22.85;25.60
43217;BME280;60511;42.686;23.300;2023-03-15T03:02:18;93569.03;;;22.86;25.77
43217;BME280;60511;42.686;23.300;2023-03-15T03:04:18;93577.44;;;22.81;25.71
43217;BME280;60511;42.686;23.300;2023-03-15T03:06:19;93550.03;;;22.72;25.58
43217;BME280;60511;42.686;23.300;2023-03-15T03:08:20;93570.16;;;22.85;25.46
43217;BME280;60511;42.686;23.300;2023-03-15T03:10:20;93563.63;;;22.86;25.35
43217;BME280;60511;42.686;23.300;2023-03-15T03:12:21;93536.19;;;22.77;25.45
43217;BME280;60511;42.686;23.300;2023-03-15T03:14:22;93472.66;;;22.32;25.40
43217;BME280;60511;42.686;23.300;2023-03-15T03:16:25;93541.25;;;22.82;25.66
43217;BME280;60511;42.686;23.300;2023-03-15T03:18:26;93536.56;;;22.76;25.77
43217;BME280;60511;42.686;23.300;2023-03-15T03:20:27;93521.50;;;22.71;25.80
43217;BME280;60511;42.686;23.300;2023-03-15T03:22:28;93548.59;;;22.89;25.70
43217;BME280;60511;42.686;23.300;2023-03-15T03:24:28;93516.06;;;22.64;25.67
43217;BME280;60511;42.686;23.300;2023-03-15T03:26:29;93537.34;;;22.80;25.71
43217;BME280;60511;42.686;23.300;2023-03-15T03:28:31;93477.34;;;22.38;25.67
43217;BME280;60511;42.686;23.300;2023-03-15T03:30:34;93521.16;;;22.76;25.61
43217;BME280;60511;42.686;23.300;2023-03-15T03:32:34;93550.91;;;22.87;25.41
43217;BME280;60511;42.686;23.300;2023-03-15T03:34:35;93550.09;;;22.83;25.83
43217;BME280;60511;42.686;23.300;2023-03-15T03:36:36;93524.63;;;22.77;25.72
43217;BME280;60511;42.686;23.300;2023-03-15T03:38:36;93531.25;;;22.86;25.78
43217;BME280;60511;42.686;23.300;2023-03-15T03:40:37;93451.13;;;22.35;25.44
43217;BME280;60511;42.686;23.300;2023-03-15T03:42:38;93538.53;;;22.86;25.63
43217;BME280;60511;42.686;23.300;2023-03-15T03:44:38;93505.38;;;22.78;26.01
43217;BME280;60511;42.686;23.300;2023-03-15T03:46:39;93419.75;;;22.16;25.51
43217;BME280;60511;42.686;23.300;2023-03-15T03:48:39;93494.88;;;22.66;25.63
43217;BME280;60511;42.686;23.300;2023-03-15T03:50:39;93459.94;;;22.32;25.66
43217;BME280;60511;42.686;23.300;2023-03-15T03:52:40;93395.34;;;21.98;25.71
43217;BME280;60511;42.686;23.300;2023-03-15T03:54:42;93511.88;;;22.74;25.76
43217;BME280;60511;42.686;23.300;2023-03-15T03:56:43;93438.72;;;22.27;25.65
43217;BME280;60511;42.686;23.300;2023-03-15T03:58:43;93512.31;;;22.79;25.79
43217;BME280;60511;42.686;23.300;2023-03-15T04:00:44;93484.41;;;22.57;25.82
43217;BME280;60511;42.686;23.300;2023-03-15T04:02:44;93441.44;;;22.31;25.64
43217;BME280;60511;42.686;23.300;2023-03-15T04:04:44;93462.03;;;22.50;25.65
43217;BME280;60511;42.686;23.300;2023-03-15T04:06:49;93534.69;;;22.83;25.87
43217;BME280;60511;42.686;23.300;2023-03-15T04:08:50;93508.88;;;22.82;25.74
43217;BME280;60511;42.686;23.300;2023-03-15T04:10:55;93484.50;;;22.68;26.00
43217;BME280;60511;42.686;23.300;2023-03-15T04:12:56;93447.34;;;22.47;25.95
43217;BME280;60511;42.686;23.300;2023-03-15T04:14:56;93424.94;;;22.36;25.72
43217;BME280;60511;42.686;23.300;2023-03-15T04:16:57;93504.25;;;22.83;25.59
43217;BME280;60511;42.686;23.300;2023-03-15T04:18:57;93515.41;;;22.81;25.70
43217;BME280;60511;42.686;23.300;2023-03-15T04:20:58;93446.88;;;22.34;25.92
43217;BME280;60511;42.686;23.300;2023-03-15T04:22:59;93504.91;;;22.69;25.77
43217;BME280;60511;42.686;23.300;2023-03-15T04:25:00;93460.47;;;22.49;25.72
43217;BME280;60511;42.686;23.300;2023-03-15T04:27:01;93465.53;;;22.57;25.80
43217;BME280;60511;42.686;23.300;2023-03-15T04:29:01;93510.78;;;22.82;25.87
43217;BME280;60511;42.686;23.300;2023-03-15T04:31:03;93451.97;;;22.46;25.75
43217;BME280;60511;42.686;23.300;2023-03-15T04:33:04;93452.75;;;22.47;25.98
43217;BME280;60511;42.686;23.300;2023-03-15T04:35:05;93481.81;;;22.72;25.83
43217;BME280;60511;42.686;23.300;2023-03-15T04:37:05;93491.53;;;22.83;26.00
43217;BME280;60511;42.686;23.300;2023-03-15T04:39:05;93498.84;;;22.83;26.13
43217;BME280;60511;42.686;23.300;2023-03-15T04:41:06;93477.16;;;22.69;25.72
43217;BME280;60511;42.686;23.300;2023-03-15T04:43:11;93504.91;;;22.69;25.79
43217;BME280;60511;42.686;23.300;2023-03-15T04:45:11;93504.56;;;22.78;25.94
43217;BME280;60511;42.686;23.300;2023-03-15T04:47:12;93486.78;;;22.70;25.78
43217;BME280;60511;42.686;23.300;2023-03-15T04:49:12;93482.16;;;22.66;25.72
43217;BME280;60511;42.686;23.300;2023-03-15T04:51:13;93512.69;;;22.81;25.54
43217;BME280;60511;42.686;23.300;2023-03-15T04:53:14;93490.28;;;22.70;25.97
43217;BME280;60511;42.686;23.300;2023-03-15T04:55:14;93505.38;;;22.78;25.55
43217;BME280;60511;42.686;23.300;2023-03-15T04:57:15;93472.84;;;22.57;25.97
43217;BME280;60511;42.686;23.300;2023-03-15T04:59:15;93436.47;;;22.33;26.19
43217;BME280;60511;42.686;23.300;2023-03-15T05:01:16;93497.69;;;22.80;25.73
43217;BME280;60511;42.686;23.300;2023-03-15T05:03:16;93489.50;;;22.70;25.82
43217;BME280;60511;42.686;23.300;2023-03-15T05:05:17;93453.91;;;22.46;26.14
43217;BME280;60511;42.686;23.300;2023-03-15T05:07:17;93436.13;;;22.38;26.34
43217;BME280;60511;42.686;23.300;2023-03-15T05:09:18;93433.31;;;22.27;25.62
43217;BME280;60511;42.686;23.300;2023-03-15T05:11:18;93484.50;;;22.68;25.77
43217;BME280;60511;42.686;23.300;2023-03-15T05:13:19;93514.63;;;22.81;25.77
43217;BME280;60511;42.686;23.300;2023-03-15T05:15:20;93428.00;;;22.34;25.52
43217;BME280;60511;42.686;23.300;2023-03-15T05:17:20;93416.38;;;22.26;25.45
43217;BME280;60511;42.686;23.300;2023-03-15T05:19:21;93497.22;;;22.71;25.76
43217;BME280;60511;42.686;23.300;2023-03-15T05:21:22;93447.38;;;22.51;25.60
43217;BME280;60511;42.686;23.300;2023-03-15T05:23:23;93476.81;;;22.70;25.68
43217;BME280;60511;42.686;23.300;2023-03-15T05:25:23;93498.84;;;22.83;25.58
43217;BME280;60511;42.686;23.300;2023-03-15T05:27:24;93434.19;;;22.38;25.87
43217;BME280;60511;42.686;23.300;2023-03-15T05:29:24;93500.38;;;22.84;25.78
43217;BME280;60511;42.686;23.300;2023-03-15T05:31:25;93494.22;;;22.83;25.43
43217;BME280;60511;42.686;23.300;2023-03-15T05:33:25;93490.75;;;22.83;25.49
43217;BME280;60511;42.686;23.300;2023-03-15T05:35:26;93421.47;;;22.35;25.52
43217;BME280;60511;42.686;23.300;2023-03-15T05:37:27;93447.44;;;22.58;25.73
43217;BME280;60511;42.686;23.300;2023-03-15T05:39:28;93437.69;;;22.42;25.60
43217;BME280;60511;42.686;23.300;2023-03-15T05:41:29;93438.53;;;22.50;25.23
43217;BME280;60511;42.686;23.300;2023-03-15T05:43:29;93501.94;;;22.85;25.53
43217;BME280;60511;42.686;23.300;2023-03-15T05:45:30;93503.06;;;22.84;25.49
43217;BME280;60511;42.686;23.300;2023-03-15T05:47:30;93479.06;;;22.64;25.59
43217;BME280;60511;42.686;23.300;2023-03-15T05:49:30;93336.00;;;21.87;25.37
43217;BME280;60511;42.686;23.300;2023-03-15T05:51:31;93457.09;;;22.62;25.64
43217;BME280;60511;42.686;23.300;2023-03-15T05:53:31;93482.28;;;22.84;25.46
43217;BME280;60511;42.686;23.300;2023-03-15T05:55:32;93483.81;;;22.85;25.46
43217;BME280;60511;42.686;23.300;2023-03-15T05:57:32;93455.53;;;22.61;25.49
43217;BME280;60511;42.686;23.300;2023-03-15T05:59:33;93484.22;;;22.87;25.48
43217;BME280;60511;42.686;23.300;2023-03-15T06:01:33;93471.03;;;22.75;25.49
43217;BME280;60511;42.686;23.300;2023-03-15T06:03:34;93483.44;;;22.87;25.64
43217;BME280;60511;42.686;23.300;2023-03-15T06:05:34;93482.28;;;22.88;25.28
43217;BME280;60511;42.686;23.300;2023-03-15T06:07:35;93500.78;;;22.86;25.58
43217;BME280;60511;42.686;23.300;2023-03-15T06:09:35;93442.44;;;22.63;25.71
43217;BME280;60511;42.686;23.300;2023-03-15T06:11:36;93490.78;;;22.86;25.50
43217;BME280;60511;42.686;23.300;2023-03-15T06:13:36;93464.84;;;22.71;25.94
43217;BME280;60511;42.686;23.300;2023-03-15T06:15:36;93399.88;;;22.32;25.53
43217;BME280;60511;42.686;23.300;2023-03-15T06:17:37;93462.59;;;22.77;25.56
43217;BME280;60511;42.686;23.300;2023-03-15T06:19:37;93438.94;;;22.56;26.14
43217;BME280;60511;42.686;23.300;2023-03-15T06:21:37;93485.38;;;22.90;25.63
43217;BME280;60511;42.686;23.300;2023-03-15T06:23:38;93501.19;;;22.88;25.92
43217;BME280;60511;42.686;23.300;2023-03-15T06:25:38;93349.91;;;21.93;25.35
43217;BME280;60511;42.686;23.300;2023-03-15T06:27:39;93494.59;;;22.78;25.48
43217;BME280;60511;42.686;23.300;2023-03-15T06:29:39;93444.34;;;22.56;25.76
43217;BME280;60511;42.686;23.300;2023-03-15T06:31:40;93489.66;;;22.91;26.51
43217;BME280;60511;42.686;23.300;2023-03-15T06:33:40;93453.28;;;22.71;25.68
43217;BME280;60511;42.686;23.300;2023-03-15T06:35:41;93355.44;;;22.15;25.61
43217;BME280;60511;42.686;23.300;2023-03-15T06:37:41;93393.38;;;22.40;25.37
43217;BME280;60511;42.686;23.300;2023-03-15T06:39:43;93432.13;;;22.73;25.40
43217;BME280;60511;42.686;23.300;2023-03-15T06:41:51;93178.03;;;21.02;25.21
43217;BME280;60511;42.686;23.300;2023-03-15T06:43:53;93479.59;;;22.84;25.37
43217;BME280;60511;42.686;23.300;2023-03-15T06:45:53;93385.63;;;22.35;25.33
43217;BME280;60511;42.686;23.300;2023-03-15T06:47:54;93474.59;;;22.90;25.34
43217;BME280;60511;42.686;23.300;2023-03-15T06:49:55;93273.47;;;21.60;25.30
43217;BME280;60511;42.686;23.300;2023-03-15T06:51:56;93229.84;;;21.40;25.33
43217;BME280;60511;42.686;23.300;2023-03-15T06:53:56;93238.34;;;21.42;25.50
43217;BME280;60511;42.686;23.300;2023-03-15T06:55:56;93519.34;;;22.95;25.31
43217;BME280;60511;42.686;23.300;2023-03-15T06:57:57;93491.56;;;22.94;25.60
43217;BME280;60511;42.686;23.300;2023-03-15T06:59:57;93428.16;;;22.59;25.44
43217;BME280;60511;42.686;23.300;2023-03-15T07:01:58;93393.41;;;22.43;25.37
43217;BME280;60511;42.686;23.300;2023-03-15T07:03:58;93359.03;;;22.26;25.42
43217;BME280;60511;42.686;23.300;2023-03-15T07:05:58;93466.53;;;22.94;25.21
43217;BME280;60511;42.686;23.300;2023-03-15T07:07:59;93462.28;;;22.93;25.58
43217;BME280;60511;42.686;23.300;2023-03-15T07:09:59;93465.00;;;22.93;25.53
43217;BME280;60511;42.686;23.300;2023-03-15T07:12:02;93426.28;;;22.67;25.59
43217;BME280;60511;42.686;23.300;2023-03-15T07:14:32;93400.38;;;22.48;29.81
43217;BME280;60511;42.686;23.300;2023-03-15T07:16:46;93290.47;;;21.72;28.81
43217;BME280;60511;42.686;23.300;2023-03-15T07:18:51;93337.22;;;21.94;28.72
43217;BME280;60511;42.686;23.300;2023-03-15T07:20:57;92930.88;;;19.49;28.47
43217;BME280;60511;42.686;23.300;2023-03-15T07:22:58;93114.72;;;20.67;28.79
43217;BME280;60511;42.686;23.300;2023-03-15T07:27:12;93385.72;;;22.45;28.40
43217;BME280;60511;42.686;23.300;2023-03-15T07:29:12;93489.31;;;23.00;30.99
43217;BME280;60511;42.686;23.300;2023-03-15T07:31:13;93424.75;;;22.70;30.07
43217;BME280;60511;42.686;23.300;2023-03-15T07:33:13;93400.81;;;22.57;30.62
43217;BME280;60511;42.686;23.300;2023-03-15T07:35:14;93479.72;;;23.02;29.91
43217;BME280;60511;42.686;23.300;2023-03-15T07:37:14;93465.84;;;23.04;30.04
43217;BME280;60511;42.686;23.300;2023-03-15T07:39:16;93478.97;;;23.05;30.26
43217;BME280;60511;42.686;23.300;2023-03-15T07:41:16;93458.13;;;23.06;29.78
43217;BME280;60511;42.686;23.300;2023-03-15T07:43:17;93476.66;;;23.08;29.80
43217;BME280;60511;42.686;23.300;2023-03-15T07:45:18;93430.25;;;22.80;29.76
43217;BME280;60511;42.686;23.300;2023-03-15T07:47:18;93458.06;;;22.95;29.66
43217;BME280;60511;42.686;23.300;2023-03-15T07:49:18;93446.91;;;22.97;29.37
43217;BME280;60511;42.686;23.300;2023-03-15T07:51:19;93477.81;;;23.10;29.13
43217;BME280;60511;42.686;23.300;2023-03-15T07:53:19;93419.47;;;22.87;29.58
43217;BME280;60511;42.686;23.300;2023-03-15T07:55:20;93450.06;;;23.10;29.03
43217;BME280;60511;42.686;23.300;2023-03-15T07:57:20;93456.22;;;23.10;29.33
43217;BME280;60511;42.686;23.300;2023-03-15T07:59:21;93432.63;;;23.00;29.16
43217;BME280;60511;42.686;23.300;2023-03-15T08:01:21;93401.28;;;22.70;29.16
43217;BME280;60511;42.686;23.300;2023-03-15T08:03:23;93459.31;;;23.09;28.96
43217;BME280;60511;42.686;23.300;2023-03-15T08:05:24;93325.13;;;22.25;28.74
43217;BME280;60511;42.686;23.300;2023-03-15T08:07:24;93436.53;;;23.02;28.81
43217;BME280;60511;42.686;23.300;2023-03-15T08:09:25;93442.66;;;22.99;28.60
43217;BME280;60511;42.686;23.300;2023-03-15T08:11:25;93475.13;;;23.10;28.88
43217;BME280;60511;42.686;23.300;2023-03-15T08:13:26;93403.59;;;22.75;28.67
43217;BME280;60511;42.686;23.300;2023-03-15T08:15:26;93407.47;;;22.78;28.64
43217;BME280;60511;42.686;23.300;2023-03-15T08:17:27;93339.50;;;22.47;28.82
43217;BME280;60511;42.686;23.300;2023-03-15T08:19:27;93394.44;;;22.91;28.56
43217;BME280;60511;42.686;23.300;2023-03-15T08:21:27;93351.91;;;22.62;28.50
43217;BME280;60511;42.686;23.300;2023-03-15T08:23:28;93438.50;;;23.13;28.48
43217;BME280;60511;42.686;23.300;2023-03-15T08:25:29;93370.06;;;22.73;28.33
43217;BME280;60511;42.686;23.300;2023-03-15T08:27:30;93439.28;;;23.13;28.55
43217;BME280;60511;42.686;23.300;2023-03-15T08:29:30;93436.19;;;23.15;28.61
43217;BME280;60511;42.686;23.300;2023-03-15T08:31:31;93426.53;;;23.10;28.65
43217;BME280;60511;42.686;23.300;2023-03-15T08:33:31;93424.25;;;23.12;28.80
43217;BME280;60511;42.686;23.300;2023-03-15T08:35:32;93433.50;;;23.11;28.78
43217;BME280;60511;42.686;23.300;2023-03-15T08:37:33;93421.53;;;23.12;28.78
43217;BME280;60511;42.686;23.300;2023-03-15T08:39:34;93427.31;;;23.11;28.53
43217;BME280;60511;42.686;23.300;2023-03-15T08:41:35;93383.59;;;22.76;28.64
43217;BME280;60511;42.686;23.300;2023-03-15T08:43:35;93366.97;;;22.71;28.55
43217;BME280;60511;42.686;23.300;2023-03-15T08:45:36;93407.56;;;22.96;28.48
43217;BME280;60511;42.686;23.300;2023-03-15T08:47:36;93385.56;;;22.86;28.60
43217;BME280;60511;42.686;23.300;2023-03-15T08:49:36;93401.84;;;23.04;28.53
43217;BME280;60511;42.686;23.300;2023-03-15T08:51:37;93351.13;;;22.58;28.34
43217;BME280;60511;42.686;23.300;2023-03-15T08:53:37;93427.31;;;23.11;28.71
43217;BME280;60511;42.686;23.300;2023-03-15T08:55:38;93427.31;;;23.11;28.56
43217;BME280;60511;42.686;23.300;2023-03-15T08:57:39;93436.56;;;23.10;28.33
43217;BME280;60511;42.686;23.300;2023-03-15T08:59:40;93438.91;;;23.11;28.61
43217;BME280;60511;42.686;23.300;2023-03-15T09:01:40;93433.09;;;23.05;28.42
43217;BME280;60511;42.686;23.300;2023-03-15T09:03:41;93428.50;;;23.13;28.41
43217;BME280;60511;42.686;23.300;2023-03-15T09:05:41;93380.50;;;22.74;28.40
43217;BME280;60511;42.686;23.300;2023-03-15T09:07:43;93434.66;;;23.14;28.34
43217;BME280;60511;42.686;23.300;2023-03-15T09:09:43;93439.28;;;23.13;28.27
43217;BME280;60511;42.686;23.300;2023-03-15T09:11:47;93400.25;;;23.00;28.14
43217;BME280;60511;42.686;23.300;2023-03-15T09:13:47;93390.19;;;22.90;28.31
43217;BME280;60511;42.686;23.300;2023-03-15T09:15:49;93415.34;;;23.04;27.95
43217;BME280;60511;42.686;23.300;2023-03-15T09:17:50;93382.06;;;22.86;28.17
43217;BME280;60511;42.686;23.300;2023-03-15T09:19:50;93268.41;;;22.07;28.13
43217;BME280;60511;42.686;23.300;2023-03-15T09:21:51;93435.06;;;23.16;28.15
43217;BME280;60511;42.686;23.300;2023-03-15T09:23:52;93347.66;;;22.58;28.15
43217;BME280;60511;42.686;23.300;2023-03-15T09:25:52;93395.97;;;22.84;27.74
43217;BME280;60511;42.686;23.300;2023-03-15T09:27:53;93363.50;;;22.66;27.81
43217;BME280;60511;42.686;23.300;2023-03-15T09:29:53;93390.59;;;22.92;27.95
43217;BME280;60511;42.686;23.300;2023-03-15T09:31:53;93373.97;;;22.79;27.64
43217;BME280;60511;42.686;23.300;2023-03-15T09:33:54;93360.06;;;22.73;27.75
43217;BME280;60511;42.686;23.300;2023-03-15T09:35:55;93399.91;;;23.01;27.59
43217;BME280;60511;42.686;23.300;2023-03-15T09:37:56;93378.25;;;22.91;27.76
43217;BME280;60511;42.686;23.300;2023-03-15T09:39:56;93427.31;;;23.11;27.39
43217;BME280;60511;42.686;23.300;2023-03-15T09:41:57;93319.56;;;22.62;27.41
43217;BME280;60511;42.686;23.300;2023-03-15T09:49:19;93399.19;;;23.15;27.43
43217;BME280;60511;42.686;23.300;2023-03-15T09:51:42;93379.44;;;23.00;27.34
43217;BME280;60511;42.686;23.300;2023-03-15T09:55:50;93394.94;;;23.14;27.67
43217;BME280;60511;42.686;23.300;2023-03-15T09:58:03;93287.53;;;22.50;27.38
43217;BME280;60511;42.686;23.300;2023-03-15T10:00:12;93191.31;;;21.88;27.21
43217;BME280;60511;42.686;23.300;2023-03-15T10:02:30;93387.63;;;23.15;27.34
43217;BME280;60511;42.686;23.300;2023-03-15T10:04:32;93319.97;;;22.68;27.20
43217;BME280;60511;42.686;23.300;2023-03-15T10:06:46;93407.66;;;23.14;26.91
43217;BME280;60511;42.686;23.300;2023-03-15T10:08:53;93356.63;;;22.76;27.13
43217;BME280;60511;42.686;23.300;2023-03-15T10:11:22;93400.34;;;23.14;27.16
43217;BME280;60511;42.686;23.300;2023-03-15T10:13:32;93393.81;;;23.15;26.98
43217;BME280;60511;42.686;23.300;2023-03-15T10:19:59;93399.19;;;23.15;27.04
43217;BME280;60511;42.686;23.300;2023-03-15T10:25:04;93394.97;;;23.18;26.92
43217;BME280;60511;42.686;23.300;2023-03-15T10:27:35;93384.13;;;23.03;26.95
43217;BME280;60511;42.686;23.300;2023-03-15T10:29:36;93273.59;;;22.34;26.98
43217;BME280;60511;42.686;23.300;2023-03-15T10:31:39;93295.63;;;22.50;26.70
43217;BME280;60511;42.686;23.300;2023-03-15T10:33:41;93388.00;;;23.17;26.92
43217;BME280;60511;42.686;23.300;2023-03-15T10:35:43;93343.97;;;22.95;26.88
43217;BME280;60511;42.686;23.300;2023-03-15T10:37:43;93388.41;;;23.15;26.58
43217;BME280;60511;42.686;23.300;2023-03-15T10:39:48;93338.50;;;22.84;26.48
43217;BME280;60511;42.686;23.300;2023-03-15T10:41:50;93309.50;;;22.59;26.75
43217;BME280;60511;42.686;23.300;2023-03-15T10:43:57;93380.66;;;23.03;26.73
43217;BME280;60511;42.686;23.300;2023-03-15T10:48:00;93379.09;;;23.02;26.84
43217;BME280;60511;42.686;23.300;2023-03-15T10:50:01;93382.13;;;23.00;26.60
43217;BME280;60511;42.686;23.300;2023-03-15T10:52:02;93391.47;;;23.14;26.86
43217;BME280;60511;42.686;23.300;2023-03-15T10:56:22;93373.28;;;23.00;26.83
43217;BME280;60511;42.686;23.300;2023-03-15T10:58:38;93401.50;;;23.13;26.62
43217;BME280;60511;42.686;23.300;2023-03-15T11:00:48;93388.78;;;23.14;26.46
43217;BME280;60511;42.686;23.300;2023-03-15T11:02:51;93340.41;;;22.80;26.73
43217;BME280;60511;42.686;23.300;2023-03-15T11:05:22;93385.59;;;22.97;26.82